Aledo, Illinois
Current Conditions -  °F | °C
As of 12:52 PM on Thursday 23 Oct 2014 (Local Time) from KMLI Reporting Station
Overcast Overcast  
Wind Chill: 59°   Ceiling: 6000
Heat Index: 59°   Visibility: 10mi
Dew Point: 44°   Wind: 13mph
Humidity: 58%   Direction: 180°S
Pressure: 30.09"   Gusts: NA
Location:  41.2°N, 90.75°W
Report Text: KMLI 231752Z 18011KT 10SM FEW034 OVC060 15/07 A3009 RMK AO2 SLP192 T01500067 10150 20044 56014
Loading
Personal Weather Stations






























Interactive Weather Map
Tropical Storm Tracking
New forecast layout! Learn more

10-Day Weather Forecast

Advertisements
Track Severe Weather on mobile